Rogiet, United Kingdom
Current Conditions -  °F | °C
As of 9:20 PM on Saturday 22 Nov 2014 (Local Time) from EGGD Reporting Station
Few Clouds Few Clouds  
Wind Chill: 10°   Ceiling: Unl
Heat Index: 10°   Visibility: 6mi
Dew Point:   Wind: 7mph
Humidity: 94%   Direction: 280°W
Pressure: 29.97"   Gusts: NA
Location:  51.59°N, 2.78°W
Report Text: EGGD 222120Z 28006KT 9999 FEW021 10/09 Q1015
Loading
Personal Weather Stations






























Interactive Weather Map New forecast layout! Learn more

10-Day Weather Forecast

Advertisements
Track Severe Weather on mobile